No particular awareness of the weather is required.    There are no Weather-warnings


Meteo18 Weather Cam more information Meteo18 Weather Cam


Thunder radar more information blitzortung!


Rain radar more information rain snow radar


Visit our other weather sites:

Template documentation
and downloads

And another site



Weather Underground History page Text

Daily Summary for November 14, 2017 Units:  Metric    English   Both
« Previous Day
Next Day »
Daily Weekly Monthly Yearly Custom
  High: Low: Average:
Temperature: -17.8 °C -18.2 °C -15.8 °C
Dew Point: -17.8 °C -18.6 °C -16.5 °C
Humidity: Humidity % 82 % 91 %
Wind Speed: 0 km/h 0 km/h 4 km/h
Wind Gust: 0 km/h - -
Wind:- - South
Pressure: 0 hPa 34774.2 hPa -
Precipitation: 0 mm    
Historical Graphs
 
 
Tabular Data for November 14, 2017
Time Temperature Dew Point Pressure Wind Wind Speed Wind Gust Humidity Rainfall Rate (Hourly)
-17.8 °C -17.8 °C 0 hPa Calm     Humidity % 0 mm
03:07 -15.8 °C -16.2 °C 34797.9 hPa NE 7.7 km/h -2586.8 km/h 95 % 0 mm
03:12 -15.8 °C -16.2 °C 34797.9 hPa NNE 7.7 km/h 12.9 km/h 95 % 0 mm
03:17 -15.8 °C -16.2 °C 34797.9 hPa NNE 2.6 km/h 12.9 km/h 95 % 0 mm
03:22 -15.8 °C -16.3 °C 34808.1 hPa NE 2.6 km/h 12.9 km/h 94 % 0 mm
03:27 -15.7 °C -16.1 °C 34808.1 hPa Calm   12.9 km/h 95 % 0 mm
03:32 -15.7 °C -16.2 °C 34808.1 hPa NNE 2.6 km/h 12.9 km/h 94 % 0 mm
03:42 -15.7 °C -16.2 °C 34808.1 hPa North 5.1 km/h 7.7 km/h 94 % 0 mm
03:47 -15.7 °C -16.2 °C 34808.1 hPa Calm   7.7 km/h 94 % 0 mm
03:52 -15.7 °C -16.2 °C 34808.1 hPa NNE 5.1 km/h 7.7 km/h 94 % 0 mm
03:57 -15.7 °C -16.2 °C 34808.1 hPa NNE 2.6 km/h 7.7 km/h 94 % 0 mm
04:02 -15.7 °C -16.2 °C 34808.1 hPa NE 5.1 km/h 7.7 km/h 94 % 0 mm
04:07 -15.6 °C -16.1 °C 34818.2 hPa NE 7.7 km/h 7.7 km/h 94 % 0 mm
04:12 -15.6 °C -16.1 °C 34818.2 hPa Calm   7.7 km/h 94 % 0 mm
04:17 -15.6 °C -16.1 °C 34818.2 hPa Calm   10.3 km/h 94 % 0 mm
04:22 -15.5 °C -16 °C 34808.1 hPa ENE 2.6 km/h 10.3 km/h 94 % 0 mm
04:32 -15.5 °C -16 °C 34808.1 hPa North 2.6 km/h 7.7 km/h 94 % 0 mm
04:37 -15.5 °C -16.1 °C 34808.1 hPa NE 5.1 km/h 10.3 km/h 93 % 0 mm
04:42 -15.4 °C -16 °C 34808.1 hPa NNE 2.6 km/h 10.3 km/h 93 % 0 mm
04:47 -15.4 °C -16 °C 34808.1 hPa Calm   10.3 km/h 93 % 0 mm
04:52 -15.4 °C -15.9 °C 34808.1 hPa NNW 7.7 km/h 10.3 km/h 93 % 0 mm
04:57 -15.4 °C -15.9 °C 34818.2 hPa NE 5.1 km/h 10.3 km/h 93 % 0 mm
05:02 -15.4 °C -15.9 °C 34818.2 hPa NW 2.6 km/h 10.3 km/h 93 % 0 mm
05:07 -15.3 °C -15.9 °C 34818.2 hPa NNW 2.6 km/h 10.3 km/h 93 % 0 mm
05:12 -15.3 °C -16 °C 34818.2 hPa Calm   10.3 km/h 92 % 0 mm
05:17 -15.3 °C -16 °C 34818.2 hPa North 2.6 km/h 12.9 km/h 92 % 0 mm
05:22 -15.2 °C -15.9 °C 34818.2 hPa NW 5.1 km/h 12.9 km/h 92 % 0 mm
05:32 -15.1 °C -15.7 °C 34818.2 hPa Calm   12.9 km/h 92 % 0 mm
05:42 -14.9 °C -15.6 °C 34808.1 hPa North 5.1 km/h 10.3 km/h 91 % 0 mm
05:57 -14.8 °C -15.7 °C 34808.1 hPa NNW 12.9 km/h 15.6 km/h 89 % 0 mm
06:02 -14.7 °C -15.5 °C 34797.9 hPa North 5.1 km/h 15.6 km/h 90 % 0 mm
06:07 -14.6 °C -15.6 °C 34797.9 hPa NW 5.1 km/h 15.6 km/h 89 % 0 mm
06:12 -14.6 °C -15.6 °C 34797.9 hPa NNW 2.6 km/h 15.6 km/h 88 % 0 mm
06:17 -14.6 °C -15.6 °C 34797.9 hPa NW 7.7 km/h 18.2 km/h 88 % 0 mm
06:32 -14.3 °C -15.6 °C 34797.9 hPa NNW 12.9 km/h 20.8 km/h 86 % 0 mm
06:42 -14.2 °C -15.3 °C 34797.9 hPa North 10.3 km/h 20.8 km/h 87 % 0 mm
06:47 -14.2 °C -15.4 °C 34797.9 hPa NNE 7.7 km/h 18.2 km/h 86 % 0 mm
06:52 -14.2 °C -15.4 °C 34797.9 hPa NNW 5.1 km/h 18.2 km/h 86 % 0 mm
06:57 -14.1 °C -15.2 °C 34797.9 hPa NNW 10.3 km/h 18.2 km/h 87 % 0 mm
07:02 -14 °C -15.2 °C 34797.9 hPa WNW 12.9 km/h 18.2 km/h 86 % 0 mm
07:12 -14 °C -15.3 °C 34797.9 hPa NNE 12.9 km/h 18.2 km/h 85 % 0 mm
07:17 -14 °C -15.3 °C 34797.9 hPa NW 12.9 km/h 20.8 km/h 85 % 0 mm
07:22 -14 °C -15.3 °C 34797.9 hPa North 10.3 km/h 20.8 km/h 85 % 0 mm
07:27 -13.9 °C -15.2 °C 34797.9 hPa NNW 5.1 km/h 20.8 km/h 85 % 0 mm
07:32 -13.9 °C -15.3 °C 34797.9 hPa North 5.1 km/h 23.3 km/h 84 % 0 mm
07:37 -13.9 °C -15.3 °C 34797.9 hPa NW 15.6 km/h 23.3 km/h 84 % 0 mm
07:42 -13.9 °C -15.2 °C 34797.9 hPa NW 15.6 km/h 25.9 km/h 85 % 0 mm
07:47 -13.9 °C -15.4 °C 34797.9 hPa NNW 7.7 km/h 25.9 km/h 83 % 0 mm
07:52 -13.9 °C -15.3 °C 34797.9 hPa NNE 7.7 km/h 25.9 km/h 84 % 0 mm
07:57 -13.9 °C -15.3 °C 34797.9 hPa NNW 10.3 km/h 20.8 km/h 84 % 0 mm
08:02 -13.9 °C -15.3 °C 34784.4 hPa West 7.7 km/h 20.8 km/h 84 % 0 mm
08:07 -13.8 °C -15.2 °C 34784.4 hPa WNW 2.6 km/h 20.8 km/h 84 % 0 mm
08:12 -13.8 °C -15.2 °C 34784.4 hPa NNW 15.6 km/h 20.8 km/h 84 % 0 mm
08:17 -13.9 °C -15.4 °C 34784.4 hPa NNE 10.3 km/h 20.8 km/h 83 % 0 mm
08:22 -14 °C -15.4 °C 34784.4 hPa NW 5.1 km/h 28.5 km/h 84 % 0 mm
08:32 -13.9 °C -15.3 °C 34774.2 hPa North 7.7 km/h 28.5 km/h 84 % 0 mm
08:37 -13.8 °C -15.2 °C 34774.2 hPa North 12.9 km/h 28.5 km/h 84 % 0 mm
08:42 -13.8 °C -15.3 °C 34784.4 hPa NNE 10.3 km/h 28.5 km/h 83 % 0 mm
08:47 -13.8 °C -15.4 °C 34784.4 hPa NE 10.3 km/h 20.8 km/h 82 % 0 mm
08:52 -13.8 °C -15.4 °C 34784.4 hPa NNE 12.9 km/h 20.8 km/h 82 % 0 mm
08:57 -13.8 °C -15.4 °C 34784.4 hPa NNW 15.6 km/h 18.2 km/h 82 % 0 mm
09:02 -13.8 °C -15.3 °C 34784.4 hPa NNE 18.2 km/h 23.3 km/h 83 % 0 mm
09:12 -13.8 °C -15.3 °C 34797.9 hPa NNW 10.3 km/h 23.3 km/h 83 % 0 mm
09:17 -13.9 °C -15.4 °C 34797.9 hPa NNW 12.9 km/h 20.8 km/h 83 % 0 mm
09:22 -13.9 °C -15.4 °C 34797.9 hPa NNE 18.2 km/h 20.8 km/h 83 % 0 mm
09:27 -13.9 °C -15.3 °C 34797.9 hPa North 10.3 km/h 20.8 km/h 84 % 0 mm
09:32 -13.8 °C -15.3 °C 34797.9 hPa NE 12.9 km/h 20.8 km/h 83 % 0 mm
09:37 -13.8 °C -15.2 °C 34797.9 hPa NNE 5.1 km/h 18.2 km/h 84 % 0 mm
09:42 -13.8 °C -15.2 °C 34784.4 hPa NNE 10.3 km/h 18.2 km/h 84 % 0 mm
09:47 -13.9 °C -15.4 °C 34784.4 hPa NW 2.6 km/h 18.2 km/h 83 % 0 mm
09:52 -13.9 °C -15.3 °C 34784.4 hPa NNW 7.7 km/h 20.8 km/h 84 % 0 mm
09:57 -13.9 °C -15.3 °C 34784.4 hPa NW 5.1 km/h 20.8 km/h 84 % 0 mm
10:02 -13.9 °C -15.3 °C 34784.4 hPa North 7.7 km/h 20.8 km/h 84 % 0 mm
10:07 -13.9 °C -15.3 °C 34784.4 hPa NNW 2.6 km/h 20.8 km/h 84 % 0 mm
10:12 -14 °C -15.4 °C 34784.4 hPa NNW 5.1 km/h 18.2 km/h 84 % 0 mm
10:17 -14 °C -15.4 °C 34784.4 hPa NNW 5.1 km/h 18.2 km/h 84 % 0 mm
10:22 -14 °C -15.4 °C 34784.4 hPa NNE 5.1 km/h 18.2 km/h 84 % 0 mm
10:27 -14.1 °C -15.4 °C 34784.4 hPa NNE 5.1 km/h 15.6 km/h 84 % 0 mm
10:37 -14.1 °C -15.4 °C 34784.4 hPa NNE 10.3 km/h 12.9 km/h 84 % 0 mm
10:42 -14.2 °C -15.6 °C 34784.4 hPa NNE 5.1 km/h 10.3 km/h 84 % 0 mm
10:47 -14.3 °C -15.6 °C 34784.4 hPa North 5.1 km/h 10.3 km/h 85 % 0 mm
10:52 -14.3 °C -15.6 °C 34784.4 hPa Calm   10.3 km/h 86 % 0 mm
10:57 -14.4 °C -15.6 °C 34797.9 hPa North 5.1 km/h 7.7 km/h 86 % 0 mm
11:02 -14.5 °C -15.7 °C 34797.9 hPa North 2.6 km/h 7.7 km/h 86 % 0 mm
11:07 -14.6 °C -15.8 °C 34797.9 hPa NNE 2.6 km/h 7.7 km/h 86 % 0 mm
11:12 -14.7 °C -15.8 °C 34797.9 hPa Calm   10.3 km/h 87 % 0 mm
11:17 -14.8 °C -15.9 °C 34797.9 hPa NNW 2.6 km/h 10.3 km/h 87 % 0 mm
11:22 -14.9 °C -15.9 °C 34797.9 hPa NNE 5.1 km/h 10.3 km/h 88 % 0 mm
11:32 -15.1 °C -16.1 °C 34797.9 hPa Calm   5.1 km/h 88 % 0 mm
11:37 -15.2 °C -16.1 °C 34797.9 hPa North 2.6 km/h 7.7 km/h 89 % 0 mm
11:42 -15.2 °C -16.1 °C 34797.9 hPa North 2.6 km/h 7.7 km/h 90 % 0 mm
11:47 -15.3 °C -16.1 °C 34797.9 hPa North 5.1 km/h 7.7 km/h 90 % 0 mm
11:52 -15.3 °C -16.1 °C 34797.9 hPa NNW 5.1 km/h 7.7 km/h 90 % 0 mm
12:02 -15.2 °C -16.1 °C 34797.9 hPa NNW 7.7 km/h 12.9 km/h 90 % 0 mm
12:12 -15.3 °C -16.2 °C 34797.9 hPa NW 5.1 km/h 12.9 km/h 90 % 0 mm
12:17 -15.3 °C -16.1 °C 34797.9 hPa NNW 5.1 km/h 12.9 km/h 91 % 0 mm
12:22 -15.4 °C -16.1 °C 34797.9 hPa North 2.6 km/h 12.9 km/h 91 % 0 mm
12:27 -15.4 °C -16.1 °C 34797.9 hPa NNW 2.6 km/h 12.9 km/h 91 % 0 mm
12:32 -15.4 °C -16.1 °C 34797.9 hPa NNW 5.1 km/h 12.9 km/h 91 % 0 mm
12:37 -15.4 °C -16.2 °C 34797.9 hPa NNW 7.7 km/h 15.6 km/h 91 % 0 mm
12:47 -15.4 °C -16.2 °C 34797.9 hPa NW 7.7 km/h 18.2 km/h 91 % 0 mm
12:52 -15.5 °C -16.2 °C 34797.9 hPa North 10.3 km/h 18.2 km/h 91 % 0 mm
12:57 -15.5 °C -16.2 °C 34808.1 hPa NW 5.1 km/h 15.6 km/h 91 % 0 mm
13:02 -15.5 °C -16.2 °C 34808.1 hPa North 7.7 km/h 18.2 km/h 92 % 0 mm
13:12 -15.6 °C -16.3 °C 34808.1 hPa NW 5.1 km/h 18.2 km/h 91 % 0 mm
13:17 -15.6 °C -16.3 °C 34808.1 hPa North 7.7 km/h 15.6 km/h 91 % 0 mm
13:22 -15.6 °C -16.3 °C 34808.1 hPa NNW 7.7 km/h 12.9 km/h 91 % 0 mm
13:27 -15.7 °C -16.4 °C 34808.1 hPa North 10.3 km/h 12.9 km/h 91 % 0 mm
13:42 -15.9 °C -16.6 °C 34808.1 hPa NNE 2.6 km/h 10.3 km/h 92 % 0 mm
13:52 -16 °C -16.7 °C 34808.1 hPa Calm   10.3 km/h 92 % 0 mm
14:02 -16.1 °C -16.8 °C 34808.1 hPa Calm   7.7 km/h 92 % 0 mm
14:12 -16.2 °C -16.8 °C 34808.1 hPa Calm   2.6 km/h 93 % 0 mm
14:22 -16.2 °C -16.8 °C 34808.1 hPa Calm   2.6 km/h 93 % 0 mm
14:27 -16.3 °C -16.8 °C 34818.2 hPa Calm   2.6 km/h 93 % 0 mm
14:32 -16.4 °C -16.9 °C 34818.2 hPa Calm   2.6 km/h 93 % 0 mm
14:42 -16.4 °C -16.9 °C 34818.2 hPa NW 2.6 km/h   94 % 0 mm
14:47 -16.4 °C -16.8 °C 34818.2 hPa NW 2.6 km/h 2.6 km/h 95 % 0 mm
14:52 -16.3 °C -16.8 °C 34818.2 hPa NW 2.6 km/h 2.6 km/h 94 % 0 mm
14:57 -16.3 °C -16.8 °C 34818.2 hPa Calm   2.6 km/h 94 % 0 mm
15:02 -16.4 °C -16.9 °C 34818.2 hPa Calm   2.6 km/h 94 % 0 mm
15:12 -16.7 °C -17.2 °C 34818.2 hPa Calm   2.6 km/h 94 % 0 mm
15:17 -16.6 °C -16.9 °C 34818.2 hPa Calm     95 % 0 mm
15:27 -16.6 °C -16.9 °C 34818.2 hPa Calm   2.6 km/h 95 % 0 mm
15:32 -16.6 °C -17.1 °C 34818.2 hPa Calm   2.6 km/h 94 % 0 mm
15:37 -16.7 °C -17.2 °C 34818.2 hPa NW 2.6 km/h 2.6 km/h 94 % 0 mm
15:42 -16.8 °C -17.2 °C 34808.1 hPa Calm   2.6 km/h 95 % 0 mm
15:47 -16.8 °C -17.2 °C 34808.1 hPa Calm   2.6 km/h 95 % 0 mm
15:52 -16.8 °C -17.2 °C 34818.2 hPa NW 2.6 km/h 2.6 km/h 95 % 0 mm
16:02 -16.8 °C -17.2 °C 34808.1 hPa NW 2.6 km/h 2.6 km/h 95 % 0 mm
16:07 -16.9 °C -17.3 °C 34808.1 hPa Calm   5.1 km/h 95 % 0 mm
16:12 -16.9 °C -17.3 °C 34808.1 hPa Calm   5.1 km/h 95 % 0 mm
16:17 -16.9 °C -17.3 °C 34808.1 hPa Calm   5.1 km/h 95 % 0 mm
16:22 -16.9 °C -17.3 °C 34808.1 hPa Calm   2.6 km/h 95 % 0 mm
16:27 -16.9 °C -17.2 °C 34818.2 hPa NNW 2.6 km/h 2.6 km/h 96 % 0 mm
16:32 -16.9 °C -17.2 °C 34818.2 hPa NNE 2.6 km/h 2.6 km/h 96 % 0 mm
16:37 -16.8 °C -17.1 °C 34808.1 hPa NE 2.6 km/h 2.6 km/h 96 % 0 mm
16:42 -16.7 °C -17.1 °C 34818.2 hPa NE 2.6 km/h 2.6 km/h 96 % 0 mm
16:47 -16.6 °C -16.9 °C 34808.1 hPa NE 2.6 km/h 5.1 km/h 96 % 0 mm
16:57 -16.6 °C -16.9 °C 34818.2 hPa Calm   7.7 km/h 96 % 0 mm
17:02 -16.6 °C -16.9 °C 34808.1 hPa Calm   7.7 km/h 96 % 0 mm
17:12 -16.6 °C -16.9 °C 34808.1 hPa NNE 2.6 km/h 2.6 km/h 96 % 0 mm
17:17 -16.6 °C -16.9 °C 34808.1 hPa NNE 5.1 km/h 5.1 km/h 96 % 0 mm
17:22 -16.6 °C -16.9 °C 34808.1 hPa NNW 2.6 km/h 5.1 km/h 96 % 0 mm
17:27 -16.7 °C -17 °C 34808.1 hPa Calm   7.7 km/h 96 % 0 mm
17:32 -16.7 °C -17.1 °C 34808.1 hPa Calm   7.7 km/h 96 % 0 mm
17:37 -16.8 °C -17.1 °C 34808.1 hPa NE 2.6 km/h 7.7 km/h 96 % 0 mm
17:42 -16.8 °C -17.1 °C 34808.1 hPa NNE 5.1 km/h 5.1 km/h 96 % 0 mm
17:47 -16.8 °C -17.2 °C 34808.1 hPa Calm   7.7 km/h 96 % 0 mm
17:52 -16.8 °C -17.2 °C 34808.1 hPa NNE 5.1 km/h 7.7 km/h 96 % 0 mm
17:57 -16.9 °C -17.2 °C 34808.1 hPa NNW 2.6 km/h 7.7 km/h 96 % 0 mm
18:02 -16.9 °C -17.2 °C 34808.1 hPa Calm   7.7 km/h 96 % 0 mm
18:07 -16.9 °C -17.3 °C 34808.1 hPa Calm   7.7 km/h 96 % 0 mm
18:12 -17 °C -17.3 °C 34797.9 hPa Calm   5.1 km/h 96 % 0 mm
18:17 -17.1 °C -17.4 °C 34797.9 hPa Calm   5.1 km/h 96 % 0 mm
18:22 -17.1 °C -17.4 °C 34797.9 hPa NNE 2.6 km/h 5.1 km/h 96 % 0 mm
18:27 -17.1 °C -17.4 °C 34797.9 hPa NNW 2.6 km/h 7.7 km/h 96 % 0 mm
18:32 -17.2 °C -17.6 °C 34797.9 hPa North 5.1 km/h 7.7 km/h 96 % 0 mm
18:42 -17.4 °C -17.7 °C 34797.9 hPa NNW 2.6 km/h 7.7 km/h 96 % 0 mm
18:47 -17.4 °C -17.7 °C 34797.9 hPa Calm   7.7 km/h 96 % 0 mm
18:52 -17.4 °C -17.8 °C 34797.9 hPa Calm   7.7 km/h 96 % 0 mm
18:57 -17.5 °C -17.8 °C 34797.9 hPa Calm   5.1 km/h 96 % 0 mm
19:02 -17.6 °C -17.9 °C 34797.9 hPa Calm   2.6 km/h 96 % 0 mm
19:12 -17.7 °C -18 °C 34797.9 hPa Calm   2.6 km/h 96 % 0 mm
19:17 -17.7 °C -18.1 °C 34797.9 hPa Calm     96 % 0 mm
19:22 -17.7 °C -18.1 °C 34797.9 hPa Calm     96 % 0 mm
19:27 -17.7 °C -18.1 °C 34797.9 hPa Calm     96 % 0 mm
19:32 -17.7 °C -18.1 °C 34797.9 hPa Calm     96 % 0 mm
19:37 -17.8 °C -18.1 °C 34797.9 hPa Calm     96 % 0 mm
19:42 -17.8 °C -18.2 °C 34797.9 hPa Calm     96 % 0 mm
19:47 -17.9 °C -18.2 °C 34797.9 hPa Calm     96 % 0 mm
19:52 -17.9 °C -18.2 °C 34797.9 hPa Calm     96 % 0 mm
19:57 -17.9 °C -18.3 °C 34797.9 hPa Calm     96 % 0 mm
20:02 -17.9 °C -18.2 °C 34797.9 hPa Calm     96 % 0 mm
20:12 -17.9 °C -18.3 °C 34797.9 hPa Calm     96 % 0 mm
20:17 -17.9 °C -18.3 °C 34797.9 hPa Calm     96 % 0 mm
20:22 -18 °C -18.3 °C 34797.9 hPa Calm     96 % 0 mm
20:32 -18 °C -18.3 °C 34797.9 hPa Calm     96 % 0 mm
20:42 -18.1 °C -18.4 °C 34797.9 hPa Calm   5.1 km/h 96 % 0 mm
20:52 -18.1 °C -18.4 °C 34797.9 hPa Calm   5.1 km/h 96 % 0 mm
20:57 -18.1 °C -18.4 °C 34797.9 hPa NE 5.1 km/h 5.1 km/h 96 % 0 mm
21:02 -18.1 °C -18.4 °C 34797.9 hPa North 2.6 km/h 5.1 km/h 96 % 0 mm
21:12 -18.1 °C -18.4 °C 34784.4 hPa Calm   5.1 km/h 96 % 0 mm
21:17 -18.2 °C -18.5 °C 34784.4 hPa Calm   5.1 km/h 96 % 0 mm
21:22 -18.2 °C -18.5 °C 34784.4 hPa Calm   2.6 km/h 96 % 0 mm
21:27 -18.2 °C -18.5 °C 34784.4 hPa Calm   2.6 km/h 96 % 0 mm
21:32 -18.2 °C -18.6 °C 34784.4 hPa Calm   2.6 km/h 96 % 0 mm
21:37 -18.2 °C -18.6 °C 34784.4 hPa Calm   2.6 km/h 96 % 0 mm
21:42 -18.2 °C -18.5 °C 34774.2 hPa Calm   2.6 km/h 96 % 0 mm
21:47 -18.1 °C -18.3 °C 34774.2 hPa Calm   2.6 km/h 97 % 0 mm
21:52 -18.1 °C -18.3 °C 34774.2 hPa Calm   2.6 km/h 97 % 0 mm
Meteo18
Compliments of Weather Underground - 4 mb

Script developed by  Jim McMurry - jmcmurry@mwt.net Adapted for the template by  Wim van der Kuil - Leuven-Template.eu

You find our weather info also at:

European Weather Network

Weather Underground

Equipment we use:

Weather-station
Davis Vue

Weather-program
Meteobridge

Weather-server
Raspberry PI 2 B+

Provider
1 and 1

Davis Vue

Meteobridge

Raspberry PI 2 B+

1 and 1